Terminal Aerodrome Forecast
Issued by NWS

Home | Current Version | Previous Version | Text Only | Print | Product List | Glossary On
Versions: 1 2 3 4 5 6 7 8 9 10 11 12 13 14 15
000
FTAK31 PAJN 022300
TAFAYA
TAF
PAYA 022320Z 0300/0324 18004KT P6SM SCT020 BKN050
     FM030600 10003KT P6SM VCSH BKN025 OVC050
     FM030900 10003KT 5SM BR VCFG SCT007 BKN015 OVC035
     FM031200 10003KT 1/2SM FG SCT003 BKN007 OVC015
     FM031600 12004KT 4SM BR SCT007 OVC015
     FM031800 14005KT P6SM BKN015 OVC030
      AMD LTD TO CLD VIS AND WIND 0301/0310=

USA.gov is the U.S. government's official web portal to all federal, state and local government web resources and services.